createdAt,value
2023-09-06T00:00:18.740Z,2.33
2023-09-06T00:10:24.261Z,1.87
2023-09-06T00:20:26.801Z,1.90
2023-09-06T00:30:29.233Z,2.47
2023-09-06T00:40:37.272Z,2.40
2023-09-06T00:50:43.511Z,1.90
2023-09-06T01:00:47.806Z,2.33
2023-09-06T01:10:52.019Z,2.50
2023-09-06T01:21:03.845Z,2.33
2023-09-06T01:31:06.275Z,2.40
2023-09-06T01:41:12.593Z,2.00
2023-09-06T01:51:17.028Z,2.17
2023-09-06T02:01:20.636Z,2.33
2023-09-06T02:11:23.706Z,2.30
2023-09-06T02:21:27.197Z,2.72
2023-09-06T02:31:29.612Z,2.63
2023-09-06T02:41:32.876Z,2.97
2023-09-06T02:51:38.761Z,2.35
2023-09-06T03:01:46.523Z,2.45
2023-09-06T03:11:49.573Z,2.58
2023-09-06T03:21:56.211Z,2.50
2023-09-06T03:31:58.631Z,2.78
2023-09-06T03:42:02.265Z,2.70
2023-09-06T03:52:06.250Z,2.53
2023-09-06T04:12:17.299Z,2.45
2023-09-06T04:22:21.314Z,2.35
2023-09-06T04:32:25.685Z,2.62
2023-09-06T04:42:28.591Z,2.45
2023-09-06T04:52:30.989Z,2.58
2023-09-06T05:02:34.048Z,2.30
2023-09-06T05:12:37.602Z,2.78
2023-09-06T05:22:41.077Z,2.80
2023-09-06T05:32:45.487Z,2.80
2023-09-06T05:42:49.069Z,2.95
2023-09-06T05:52:53.372Z,2.95
2023-09-06T06:03:01.281Z,2.67
2023-09-06T06:13:06.343Z,3.05
2023-09-06T06:23:09.753Z,2.70
2023-09-06T06:33:13.601Z,2.60
2023-09-06T06:43:18.321Z,2.30
2023-09-06T06:53:21.003Z,2.85
2023-09-06T07:03:25.745Z,2.60
2023-09-06T07:13:29.888Z,2.75
2023-09-06T07:23:33.264Z,2.95
2023-09-06T07:33:37.179Z,2.77
2023-09-06T07:43:40.630Z,2.70
2023-09-06T07:53:43.752Z,3.35
2023-09-06T08:03:47.511Z,3.47
2023-09-06T08:13:52.445Z,2.97
2023-09-06T08:23:55.840Z,3.35
2023-09-06T08:33:58.703Z,2.75
2023-09-06T08:44:07.732Z,3.63
2023-09-06T08:54:11.826Z,2.70
2023-09-06T09:04:14.383Z,2.78
2023-09-06T09:14:27.244Z,3.20
2023-09-06T09:24:31.205Z,2.77
2023-09-06T09:34:34.250Z,3.17
2023-09-06T09:54:44.585Z,3.15
2023-09-06T10:04:50.254Z,2.97
2023-09-06T10:14:55.494Z,2.92
2023-09-06T10:25:08.373Z,2.83
2023-09-06T10:35:23.398Z,2.60
2023-09-06T10:45:27.037Z,3.00
2023-09-06T10:55:44.105Z,3.05
2023-09-06T11:05:54.322Z,3.55
2023-09-06T11:15:57.129Z,3.45
2023-09-06T11:26:00.153Z,2.42
2023-09-06T11:36:05.547Z,3.28
2023-09-06T11:46:10.489Z,3.55
2023-09-06T11:56:15.907Z,3.40
2023-09-06T12:06:20.977Z,3.58
2023-09-06T12:16:25.818Z,3.30
2023-09-06T12:26:28.821Z,3.87
2023-09-06T12:36:33.099Z,3.95
2023-09-06T12:46:36.510Z,3.72
2023-09-06T12:56:41.543Z,3.90
2023-09-06T13:06:45.602Z,3.65
2023-09-06T13:16:48.795Z,3.80
2023-09-06T13:26:51.786Z,3.90
2023-09-06T13:36:54.986Z,3.85
2023-09-06T13:46:59.839Z,3.70
2023-09-06T13:57:02.454Z,3.58
2023-09-06T14:07:06.901Z,3.67
2023-09-06T14:17:10.140Z,3.70
2023-09-06T14:27:13.053Z,2.85
2023-09-06T14:37:16.885Z,2.85
2023-09-06T14:47:20.384Z,2.80
2023-09-06T14:57:23.345Z,3.03
2023-09-06T15:07:26.334Z,2.72
2023-09-06T15:17:29.073Z,2.55
2023-09-06T15:27:31.980Z,2.92
2023-09-06T15:37:35.596Z,2.87
2023-09-06T15:47:41.938Z,2.47
2023-09-06T15:57:47.187Z,3.17
2023-09-06T16:07:51.224Z,2.78
2023-09-06T16:17:55.015Z,2.40
2023-09-06T16:27:57.806Z,2.97
2023-09-06T16:38:00.425Z,2.80
2023-09-06T16:48:03.258Z,2.55
2023-09-06T16:58:09.037Z,2.37
2023-09-06T17:08:11.846Z,2.78
2023-09-06T17:18:17.331Z,2.35
2023-09-06T17:28:21.088Z,2.67
2023-09-06T17:38:24.626Z,2.80
2023-09-06T17:48:27.973Z,2.50
2023-09-06T17:58:31.209Z,2.67
2023-09-06T18:08:36.291Z,2.47
2023-09-06T18:18:39.471Z,2.67
2023-09-06T18:28:42.153Z,2.50
2023-09-06T18:38:44.816Z,2.90
2023-09-06T18:48:47.736Z,3.67
2023-09-06T18:58:53.915Z,2.42
2023-09-06T19:19:01.764Z,4.53
2023-09-06T19:29:04.749Z,4.15
2023-09-06T19:39:13.353Z,2.80
2023-09-06T19:49:16.175Z,2.53
2023-09-06T19:59:18.992Z,2.77
2023-09-06T20:09:22.941Z,2.90
2023-09-06T20:19:26.568Z,2.95
2023-09-06T20:29:30.001Z,2.55
2023-09-06T20:49:35.646Z,2.42
2023-09-06T20:59:38.644Z,2.80
2023-09-06T21:09:41.472Z,3.27
2023-09-06T21:19:44.388Z,2.23
2023-09-06T21:29:47.162Z,3.10
2023-09-06T21:39:49.769Z,2.73
2023-09-06T21:49:52.325Z,3.05
2023-09-06T21:59:54.904Z,2.92
2023-09-06T22:09:57.709Z,2.92
2023-09-06T22:20:00.546Z,3.23
2023-09-06T22:30:04.505Z,3.10
2023-09-06T22:40:08.186Z,2.67
2023-09-06T23:00:14.518Z,2.87
2023-09-06T23:10:18.344Z,2.95
2023-09-06T23:30:32.572Z,2.70
2023-09-06T23:40:38.565Z,2.67
2023-09-06T23:50:40.923Z,2.40
